Time;durP1;ratioP1;P1;durP2;ratioP2;P2;SDS_P1;SDS_P2;PMS_P1;PMS_P2;Temp;Humidity;BMP_temperature;BMP_pressure;BME280_temperature;BME280_humidity;BME280_pressure;Samples;Min_cycle;Max_cycle;Signal;HPM_P1;HPM_P2
2021/05/29 00:00:06;;;;;;;;;;;;;;;22.22;53.40;100392.44;5057051;28;752;-59
2021/05/29 00:02:31;;;;;;;;;;;;;;;21.78;54.70;100394.22;5063969;28;944;-57
2021/05/29 00:04:56;;;;;;;;;;;;;;;21.64;53.63;100393.50;5076951;28;1905;-58
2021/05/29 00:07:22;;;;;;;;;;;;;;;21.59;53.91;100390.84;5076934;28;732;-57
2021/05/29 00:09:47;;;;;;;;;;;;;;;21.67;55.38;100387.31;5076560;28;732;-59
2021/05/29 00:12:13;;;;;;;;;;;;;;;22.15;53.86;100381.03;5055850;28;1183;-59
2021/05/29 00:14:39;;;;;;;;;;;;;;;22.29;53.36;100380.09;5057058;28;788;-59
2021/05/29 00:17:05;;;;;;;;;;;;;;;22.45;52.91;100374.94;5057837;28;1111;-58
2021/05/29 00:19:30;;;;;;;;;;;;;;;22.44;52.61;100376.06;5077146;28;823;-58
2021/05/29 00:21:56;;;;;;;;;;;;;;;21.91;54.24;100369.53;5076650;28;884;-57
2021/05/29 00:24:21;;;;;;;;;;;;;;;21.85;53.48;100372.47;5076236;28;1981;-56
2021/05/29 00:26:46;;;;;;;;;;;;;;;21.59;53.25;100369.56;5076833;28;763;-60
2021/05/29 00:29:12;;;;;;;;;;;;;;;21.78;54.89;100366.53;5076555;28;728;-57
2021/05/29 00:31:37;;;;;;;;;;;;;;;22.13;53.82;100372.22;5076180;28;974;-58
2021/05/29 00:34:03;;;;;;;;;;;;;;;22.33;53.33;100370.84;5076474;28;935;-59
2021/05/29 00:36:28;;;;;;;;;;;;;;;22.42;52.86;100362.53;5076320;28;728;-59
2021/05/29 00:38:53;;;;;;;;;;;;;;;22.24;53.24;100366.38;5076329;28;962;-60
2021/05/29 00:41:19;;;;;;;;;;;;;;;21.84;54.33;100364.47;5076918;28;814;-58
2021/05/29 00:43:45;;;;;;;;;;;;;;;21.82;53.06;100359.22;5076349;28;771;-60
2021/05/29 00:46:10;;;;;;;;;;;;;;;21.71;53.43;100368.94;5075178;28;1909;-58
2021/05/29 00:48:36;;;;;;;;;;;;;;;21.93;54.49;100372.81;5076234;28;966;-57
2021/05/29 00:51:04;;;;;;;;;;;;;;;22.18;53.63;100357.41;5076370;28;803;-60
2021/05/29 00:53:30;;;;;;;;;;;;;;;22.37;53.03;100355.19;5076147;28;752;-61
2021/05/29 00:55:56;;;;;;;;;;;;;;;22.35;53.08;100362.19;5076213;28;898;-60
2021/05/29 00:58:22;;;;;;;;;;;;;;;22.08;53.82;100371.53;5076573;28;740;-60
2021/05/29 01:00:47;;;;;;;;;;;;;;;21.85;53.40;100364.16;5076293;28;772;-61
2021/05/29 01:03:13;;;;;;;;;;;;;;;21.56;52.81;100364.66;5075981;28;958;-61
2021/05/29 01:05:38;;;;;;;;;;;;;;;21.83;54.73;100362.84;5076152;28;1918;-61
2021/05/29 01:08:04;;;;;;;;;;;;;;;22.09;53.94;100364.88;5076089;28;787;-61
2021/05/29 01:10:29;;;;;;;;;;;;;;;22.28;53.29;100359.06;5076216;28;760;-61
2021/05/29 01:12:57;;;;;;;;;;;;;;;22.40;52.87;100359.28;5076270;28;1195;-61
2021/05/29 01:15:23;;;;;;;;;;;;;;;22.29;53.11;100346.84;5076147;28;1119;-59
2021/05/29 01:17:48;;;;;;;;;;;;;;;22.04;53.78;100346.47;5075870;28;971;-59
2021/05/29 01:20:14;;;;;;;;;;;;;;;21.83;53.20;100349.81;5076480;28;788;-60
2021/05/29 01:22:44;;;;;;;;;;;;;;;21.68;51.86;100355.75;5075840;28;859;-61
2021/05/29 01:25:12;;;;;;;;;;;;;;;21.79;54.82;100354.34;5075803;28;1997;-61
2021/05/29 01:27:38;;;;;;;;;;;;;;;22.11;53.96;100362.59;5076116;28;735;-60
2021/05/29 01:30:04;;;;;;;;;;;;;;;22.33;53.11;100356.13;5058129;28;673;-60
2021/05/29 01:32:33;;;;;;;;;;;;;;;22.46;52.74;100351.63;5075414;28;1007;-57
2021/05/29 01:35:09;;;;;;;;;;;;;;;22.07;53.75;100356.88;5076323;28;752;-59
2021/05/29 01:37:35;;;;;;;;;;;;;;;21.89;54.29;100356.00;5075718;28;759;-60
2021/05/29 01:40:01;;;;;;;;;;;;;;;21.50;52.09;100350.13;5075798;28;756;-58
2021/05/29 01:42:26;;;;;;;;;;;;;;;21.70;55.01;100356.28;5058286;28;768;-60
2021/05/29 01:44:52;;;;;;;;;;;;;;;22.02;54.07;100348.72;5057509;28;1977;-57
2021/05/29 01:47:17;;;;;;;;;;;;;;;22.28;53.17;100350.75;5075319;28;1022;-59
2021/05/29 01:49:43;;;;;;;;;;;;;;;22.52;52.38;100340.03;5057599;28;723;-56
2021/05/29 01:52:08;;;;;;;;;;;;;;;22.20;53.23;100355.97;5075746;28;810;-59
2021/05/29 01:54:34;;;;;;;;;;;;;;;22.21;53.32;100349.25;5075976;28;772;-59
2021/05/29 01:56:59;;;;;;;;;;;;;;;21.90;52.09;100348.53;5076908;28;751;-59
2021/05/29 01:59:24;;;;;;;;;;;;;;;21.79;53.95;100348.81;5079052;28;933;-60
2021/05/29 02:01:50;;;;;;;;;;;;;;;21.95;54.31;100346.44;5078842;28;1003;-58
2021/05/29 02:04:15;;;;;;;;;;;;;;;22.25;53.34;100348.63;5079864;28;1921;-60
2021/05/29 02:06:41;;;;;;;;;;;;;;;22.37;52.80;100351.59;5079208;28;768;-57
2021/05/29 02:09:06;;;;;;;;;;;;;;;22.48;52.56;100357.66;5079311;28;783;-60
2021/05/29 02:11:32;;;;;;;;;;;;;;;22.15;53.15;100361.63;5079228;28;1147;-57
2021/05/29 02:13:57;;;;;;;;;;;;;;;22.07;53.70;100359.66;5078716;28;776;-58
2021/05/29 02:16:23;;;;;;;;;;;;;;;21.91;52.31;100358.44;5079013;28;1182;-58
2021/05/29 02:18:48;;;;;;;;;;;;;;;21.75;52.58;100358.06;5078742;28;963;-57
2021/05/29 02:21:14;;;;;;;;;;;;;;;21.85;54.74;100352.25;5078785;28;791;-56
2021/05/29 02:23:49;;;;;;;;;;;;;;;22.15;53.65;100363.59;5079173;28;821;-58
2021/05/29 02:26:15;;;;;;;;;;;;;;;22.37;52.93;100352.44;5061209;28;1909;-61
2021/05/29 02:28:41;;;;;;;;;;;;;;;22.53;52.21;100352.78;5078487;28;764;-58
2021/05/29 02:31:07;;;;;;;;;;;;;;;22.24;53.08;100356.09;5078979;28;803;-58
2021/05/29 02:33:33;;;;;;;;;;;;;;;21.96;54.00;100359.13;5078653;28;967;-58
2021/05/29 02:35:58;;;;;;;;;;;;;;;21.58;53.40;100347.75;5078563;28;816;-58
2021/05/29 02:38:24;;;;;;;;;;;;;;;21.57;54.19;100343.34;5078525;28;756;-60
2021/05/29 02:40:50;;;;;;;;;;;;;;;21.81;54.59;100360.38;5078688;28;772;-58
2021/05/29 02:43:15;;;;;;;;;;;;;;;22.15;53.59;100353.31;5078618;28;808;-61
2021/05/29 02:45:41;;;;;;;;;;;;;;;22.41;52.76;100358.13;5078155;28;1970;-58
2021/05/29 02:48:10;;;;;;;;;;;;;;;22.49;52.40;100360.09;5078022;28;994;-60
2021/05/29 02:50:35;;;;;;;;;;;;;;;22.14;53.35;100368.31;5078849;28;847;-60
2021/05/29 02:53:01;;;;;;;;;;;;;;;22.16;53.20;100370.75;5078419;28;776;-58
2021/05/29 02:55:26;;;;;;;;;;;;;;;21.53;52.10;100366.13;5078208;28;795;-61
2021/05/29 02:57:52;;;;;;;;;;;;;;;21.76;54.93;100362.47;5078448;28;824;-58
2021/05/29 03:00:18;;;;;;;;;;;;;;;22.09;53.77;100371.25;5078009;28;854;-60
2021/05/29 03:02:43;;;;;;;;;;;;;;;22.37;52.78;100371.00;5077787;28;970;-59
2021/05/29 03:05:09;;;;;;;;;;;;;;;22.24;53.06;100366.38;5078470;28;2034;-58
2021/05/29 03:07:35;;;;;;;;;;;;;;;22.13;53.22;100383.31;5077846;28;810;-58
2021/05/29 03:10:00;;;;;;;;;;;;;;;21.82;53.07;100381.38;5077133;28;495;-58
2021/05/29 03:12:26;;;;;;;;;;;;;;;21.50;51.26;100385.25;5078161;28;1167;-59
2021/05/29 03:14:51;;;;;;;;;;;;;;;21.75;54.30;100386.56;5077558;28;808;-60
2021/05/29 03:17:17;;;;;;;;;;;;;;;21.91;54.28;100394.44;5077378;28;1063;-58
2021/05/29 03:19:43;;;;;;;;;;;;;;;22.22;53.56;100386.09;5060217;28;824;-58
2021/05/29 03:22:08;;;;;;;;;;;;;;;22.38;52.89;100383.72;5077474;28;732;-57
2021/05/29 03:24:33;;;;;;;;;;;;;;;22.24;53.05;100389.34;5077598;28;1965;-58
2021/05/29 03:26:59;;;;;;;;;;;;;;;22.10;53.55;100388.66;5077851;28;784;-58
2021/05/29 03:29:24;;;;;;;;;;;;;;;21.70;51.88;100389.47;5077237;28;779;-50
2021/05/29 03:31:50;;;;;;;;;;;;;;;21.74;53.52;100398.78;5077285;28;963;-58
2021/05/29 03:34:15;;;;;;;;;;;;;;;21.89;54.49;100405.84;5077977;28;817;-51
2021/05/29 03:36:40;;;;;;;;;;;;;;;22.26;53.44;100402.88;5077521;28;748;-57
2021/05/29 03:39:06;;;;;;;;;;;;;;;22.46;52.60;100405.06;5077874;28;788;-48
2021/05/29 03:41:31;;;;;;;;;;;;;;;22.17;53.39;100402.84;5077549;28;791;-52
2021/05/29 03:43:57;;;;;;;;;;;;;;;22.21;53.17;100407.41;5076860;28;862;-56
2021/05/29 03:46:22;;;;;;;;;;;;;;;21.97;50.81;100401.47;5077398;28;1976;-57
2021/05/29 03:48:48;;;;;;;;;;;;;;;21.78;53.70;100408.06;5079116;28;1067;-56
2021/05/29 03:51:14;;;;;;;;;;;;;;;21.95;54.18;100403.75;5095055;28;1491;-54
2021/05/29 03:53:39;;;;;;;;;;;;;;;22.15;53.68;100397.63;5088668;28;723;-53
2021/05/29 03:56:05;;;;;;;;;;;;;;;22.48;52.36;100400.03;5077069;28;763;-56
2021/05/29 03:58:31;;;;;;;;;;;;;;;21.99;53.05;100388.97;5076345;28;835;-46
2021/05/29 04:00:57;;;;;;;;;;;;;;;21.95;53.61;100399.03;5068955;28;820;-54
2021/05/29 04:03:22;;;;;;;;;;;;;;;21.81;51.10;100404.69;5050237;28;1406;-58
2021/05/29 04:05:48;;;;;;;;;;;;;;;21.69;53.74;100408.00;5056911;28;1906;-60
2021/05/29 04:08:13;;;;;;;;;;;;;;;21.99;54.03;100404.72;5056516;28;736;-55
2021/05/29 04:10:39;;;;;;;;;;;;;;;22.34;53.08;100410.41;5056419;28;767;-58
2021/05/29 04:13:04;;;;;;;;;;;;;;;22.54;52.40;100420.09;5069573;28;1112;-58
2021/05/29 04:15:29;;;;;;;;;;;;;;;22.21;53.26;100407.41;5076703;28;1146;-60
2021/05/29 04:17:55;;;;;;;;;;;;;;;22.27;53.07;100415.59;5075985;28;875;-58
2021/05/29 04:20:21;;;;;;;;;;;;;;;21.86;51.38;100412.81;5076589;28;720;-57
2021/05/29 04:22:47;;;;;;;;;;;;;;;21.75;52.73;100422.53;5077090;28;755;-55
2021/05/29 04:25:13;;;;;;;;;;;;;;;21.82;54.88;100422.88;5075842;28;1942;-53
2021/05/29 04:27:39;;;;;;;;;;;;;;;22.11;53.92;100418.78;5075567;28;764;-59
2021/05/29 04:30:05;;;;;;;;;;;;;;;22.42;52.95;100423.47;5075326;28;879;-56
2021/05/29 04:32:30;;;;;;;;;;;;;;;22.46;52.71;100429.22;5076131;28;1128;-56
2021/05/29 04:34:56;;;;;;;;;;;;;;;22.21;53.41;100429.56;5076117;28;747;-63
2021/05/29 04:37:21;;;;;;;;;;;;;;;22.01;51.98;100432.94;5076650;28;784;-59
2021/05/29 04:39:47;;;;;;;;;;;;;;;21.63;51.82;100427.81;5076629;28;801;-59
2021/05/29 04:42:12;;;;;;;;;;;;;;;21.77;54.62;100420.28;5076567;28;823;-54
2021/05/29 04:44:38;;;;;;;;;;;;;;;22.04;54.04;100433.09;5076357;28;1918;-58
2021/05/29 04:47:03;;;;;;;;;;;;;;;22.35;53.15;100423.13;5076011;28;1006;-55
2021/05/29 04:49:29;;;;;;;;;;;;;;;22.44;52.73;100440.63;5076188;28;740;-61
2021/05/29 04:51:57;;;;;;;;;;;;;;;22.30;53.00;100439.88;5076415;28;900;-61
2021/05/29 04:54:22;;;;;;;;;;;;;;;21.97;53.44;100437.47;5076294;28;795;-53
2021/05/29 04:56:47;;;;;;;;;;;;;;;21.85;50.95;100440.81;5076145;28;827;-60
2021/05/29 04:59:13;;;;;;;;;;;;;;;21.65;53.31;100431.91;5076278;28;843;-61
2021/05/29 05:01:38;;;;;;;;;;;;;;;21.70;55.27;100447.59;5076155;28;994;-60
2021/05/29 05:04:04;;;;;;;;;;;;;;;22.12;53.78;100437.03;5076099;28;990;-59
2021/05/29 05:06:29;;;;;;;;;;;;;;;22.32;53.06;100440.38;5075844;28;1997;-59
2021/05/29 05:08:55;;;;;;;;;;;;;;;22.52;52.45;100437.03;5076301;28;835;-58
2021/05/29 05:11:20;;;;;;;;;;;;;;;22.69;51.93;100438.19;5058203;28;1189;-59
2021/05/29 05:13:46;;;;;;;;;;;;;;;21.77;53.79;100445.19;5075736;28;1096;-55
2021/05/29 05:16:11;;;;;;;;;;;;;;;21.27;53.07;100448.06;5076093;28;1176;-56
2021/05/29 05:18:37;;;;;;;;;;;;;;;21.08;50.86;100446.28;5075773;28;1014;-56
2021/05/29 05:21:02;;;;;;;;;;;;;;;21.02;48.84;100450.31;5075712;28;775;-59
2021/05/29 05:23:27;;;;;;;;;;;;;;;20.97;49.58;100462.31;5058229;28;1305;-53
2021/05/29 05:25:53;;;;;;;;;;;;;;;21.39;50.90;100464.09;5075884;28;1910;-55
2021/05/29 05:28:25;;;;;;;;;;;;;;;21.65;52.22;100478.16;5075766;28;808;-57
2021/05/29 05:30:51;;;;;;;;;;;;;;;21.76;53.01;100473.19;5076135;28;752;-59
2021/05/29 05:33:18;;;;;;;;;;;;;;;21.80;53.10;100480.53;5078466;28;1022;-58
2021/05/29 05:35:43;;;;;;;;;;;;;;;21.73;52.15;100474.63;5079459;28;772;-59
2021/05/29 05:38:09;;;;;;;;;;;;;;;21.52;51.88;100477.91;5079942;28;792;-58
2021/05/29 05:40:34;;;;;;;;;;;;;;;21.45;50.60;100482.22;5079766;28;784;-59
2021/05/29 05:43:00;;;;;;;;;;;;;;;21.30;50.50;100478.66;5079350;28;820;-60
2021/05/29 05:45:25;;;;;;;;;;;;;;;21.25;50.39;100486.28;5079635;28;1913;-55
2021/05/29 05:47:51;;;;;;;;;;;;;;;21.29;49.19;100487.28;5079334;28;1029;-60
2021/05/29 05:50:17;;;;;;;;;;;;;;;21.27;50.83;100495.91;5079180;28;839;-59
2021/05/29 05:52:42;;;;;;;;;;;;;;;21.37;52.13;100490.09;5079625;28;831;-59
2021/05/29 05:55:08;;;;;;;;;;;;;;;21.58;52.43;100497.16;5079274;28;787;-59
2021/05/29 05:57:34;;;;;;;;;;;;;;;21.75;52.95;100494.47;5079486;28;886;-59
2021/05/29 05:59:59;;;;;;;;;;;;;;;21.88;53.41;100504.69;5079843;28;742;-58
2021/05/29 06:02:25;;;;;;;;;;;;;;;22.04;53.79;100501.50;5059387;28;955;-59
2021/05/29 06:04:50;;;;;;;;;;;;;;;22.17;53.27;100506.13;5078819;28;1905;-56
2021/05/29 06:07:16;;;;;;;;;;;;;;;22.08;52.76;100508.03;5079243;28;823;-58
2021/05/29 06:09:41;;;;;;;;;;;;;;;21.91;52.05;100513.47;5078662;28;843;-59
2021/05/29 06:12:07;;;;;;;;;;;;;;;21.67;51.33;100509.06;5079095;28;1167;-58
2021/05/29 06:20:00;;;;;;;;;;;;;;;21.59;51.11;100496.00;5063562;28;794;-60
2021/05/29 06:22:26;;;;;;;;;;;;;;;21.72;51.57;100497.88;5078843;28;795;-56
2021/05/29 06:24:51;;;;;;;;;;;;;;;21.59;52.76;100502.38;5078770;28;1970;-59
2021/05/29 06:27:17;;;;;;;;;;;;;;;21.81;52.54;100503.47;5078646;28;755;-59
2021/05/29 06:29:42;;;;;;;;;;;;;;;21.97;52.77;100498.38;5078999;28;724;-62
2021/05/29 06:32:08;;;;;;;;;;;;;;;21.85;53.51;100505.31;5078640;28;1034;-60
2021/05/29 06:34:34;;;;;;;;;;;;;;;21.94;53.52;100499.00;5078327;28;843;-58
2021/05/29 06:36:59;;;;;;;;;;;;;;;22.10;53.27;100500.22;5078668;28;835;-61
2021/05/29 06:39:25;;;;;;;;;;;;;;;22.17;53.17;100511.66;5079010;28;791;-54
2021/05/29 06:41:50;;;;;;;;;;;;;;;22.10;53.44;100511.28;5078175;28;792;-58
2021/05/29 06:44:15;;;;;;;;;;;;;;;22.07;53.64;100520.25;5077467;28;818;-59
2021/05/29 06:46:41;;;;;;;;;;;;;;;22.14;53.59;100520.59;5078134;28;1902;-58
2021/05/29 06:49:06;;;;;;;;;;;;;;;22.26;53.37;100514.50;5078237;28;848;-57
2021/05/29 06:54:23;;;;;;;;;;;;;;;22.33;53.27;100520.41;5078407;28;759;-58
2021/05/29 06:59:34;;;;;;;;;;;;;;;22.37;53.20;100526.13;5078263;28;752;-59
2021/05/29 07:02:00;;;;;;;;;;;;;;;22.23;53.55;100515.09;5077794;28;931;-59
2021/05/29 07:04:25;;;;;;;;;;;;;;;22.16;53.73;100520.28;5078276;28;1914;-59
2021/05/29 07:06:54;;;;;;;;;;;;;;;21.61;55.49;100521.41;5078165;28;878;-59
2021/05/29 07:09:20;;;;;;;;;;;;;;;21.47;55.36;100515.91;5078044;28;803;-47
2021/05/29 07:11:58;;;;;;;;;;;;;;;21.48;55.69;100506.47;5077511;28;1089;-54
2021/05/29 07:14:26;;;;;;;;;;;;;;;21.70;55.81;100512.03;5077922;28;752;-60
2021/05/29 07:16:52;;;;;;;;;;;;;;;21.96;54.67;100518.88;5059823;28;1170;-59
2021/05/29 07:19:18;;;;;;;;;;;;;;;22.19;54.23;100519.66;5077598;28;741;-58
2021/05/29 07:21:44;;;;;;;;;;;;;;;22.30;53.90;100521.03;5078085;28;803;-60
2021/05/29 07:24:10;;;;;;;;;;;;;;;22.21;53.67;100518.19;5078443;28;776;-60
2021/05/29 07:26:35;;;;;;;;;;;;;;;22.36;53.56;100530.03;5077581;28;1906;-56
2021/05/29 07:29:00;;;;;;;;;;;;;;;22.29;52.93;100521.34;5077726;28;851;-55
2021/05/29 07:31:26;;;;;;;;;;;;;;;22.21;52.05;100518.19;5077759;28;893;-53
2021/05/29 07:33:54;;;;;;;;;;;;;;;21.97;51.16;100517.75;5077228;28;994;-56
2021/05/29 07:36:20;;;;;;;;;;;;;;;21.65;50.94;100519.66;5077647;28;764;-59
2021/05/29 07:38:45;;;;;;;;;;;;;;;21.60;50.23;100514.25;5077651;28;776;-61
2021/05/29 07:41:11;;;;;;;;;;;;;;;21.31;50.38;100518.22;5077398;28;780;-60
2021/05/29 07:43:36;;;;;;;;;;;;;;;21.35;49.82;100513.72;5077415;28;784;-58
2021/05/29 07:46:03;;;;;;;;;;;;;;;21.30;49.38;100517.38;5077012;28;1910;-59
2021/05/29 07:48:28;;;;;;;;;;;;;;;21.28;49.13;100518.81;5076539;28;958;-52
2021/05/29 07:51:03;;;;;;;;;;;;;;;21.28;50.21;100519.66;5077382;28;764;-50
2021/05/29 07:53:29;;;;;;;;;;;;;;;21.60;52.04;100525.31;5059436;28;1102;-57
2021/05/29 07:55:55;;;;;;;;;;;;;;;21.77;53.72;100517.13;5076432;28;743;-60
2021/05/29 07:58:20;;;;;;;;;;;;;;;22.07;54.21;100523.00;5077201;28;763;-53
2021/05/29 08:00:50;;;;;;;;;;;;;;;22.17;53.66;100524.69;5077154;28;739;-57
2021/05/29 08:03:21;;;;;;;;;;;;;;;21.84;53.66;100525.81;5076324;28;962;-59
2021/05/29 08:05:47;;;;;;;;;;;;;;;21.74;52.33;100537.16;5076872;28;1888;-59
2021/05/29 08:08:13;;;;;;;;;;;;;;;21.58;51.24;100530.34;5076834;28;798;-60
2021/05/29 08:10:39;;;;;;;;;;;;;;;21.45;50.59;100532.00;5076673;28;526;-58
2021/05/29 08:13:05;;;;;;;;;;;;;;;21.47;50.32;100538.03;5076770;28;1142;-57
2021/05/29 08:15:30;;;;;;;;;;;;;;;21.52;50.62;100540.72;5076661;28;1033;-58
2021/05/29 08:17:55;;;;;;;;;;;;;;;21.67;51.21;100550.59;5075420;28;963;-58
2021/05/29 08:20:21;;;;;;;;;;;;;;;21.79;51.87;100545.31;5076759;28;740;-56
2021/05/29 08:22:46;;;;;;;;;;;;;;;21.76;52.73;100554.25;5076861;28;843;-59
2021/05/29 08:25:12;;;;;;;;;;;;;;;21.85;52.82;100552.38;5076270;28;1909;-58
2021/05/29 08:27:38;;;;;;;;;;;;;;;22.01;53.01;100557.53;5076394;28;787;-58
2021/05/29 08:30:04;;;;;;;;;;;;;;;22.05;53.20;100558.53;5076227;28;799;-58
2021/05/29 08:32:29;;;;;;;;;;;;;;;22.16;53.23;100559.06;5075866;28;1011;-59
2021/05/29 08:34:55;;;;;;;;;;;;;;;22.14;53.20;100559.38;5076388;28;823;-54
2021/05/29 08:37:20;;;;;;;;;;;;;;;22.03;53.96;100549.69;5076548;28;816;-59
2021/05/29 08:39:46;;;;;;;;;;;;;;;22.22;53.48;100558.59;5076210;28;763;-62
2021/05/29 08:42:11;;;;;;;;;;;;;;;22.39;53.10;100557.09;5076549;28;818;-58
2021/05/29 08:44:37;;;;;;;;;;;;;;;22.13;54.12;100562.47;5076373;28;1973;-59
2021/05/29 08:47:02;;;;;;;;;;;;;;;22.26;53.72;100558.81;5075518;28;939;-60
2021/05/29 08:49:28;;;;;;;;;;;;;;;21.61;55.55;100554.63;5075755;28;882;-61
2021/05/29 08:51:56;;;;;;;;;;;;;;;21.28;56.94;100561.13;5076376;28;819;-59
2021/05/29 08:54:21;;;;;;;;;;;;;;;21.14;54.90;100577.75;5076546;28;740;-59
2021/05/29 08:56:47;;;;;;;;;;;;;;;21.49;56.49;100569.78;5076450;28;772;-53
2021/05/29 08:59:13;;;;;;;;;;;;;;;21.96;55.42;100582.56;5076373;28;732;-59
2021/05/29 09:01:38;;;;;;;;;;;;;;;22.10;54.59;100583.28;5076330;28;951;-49
2021/05/29 09:04:04;;;;;;;;;;;;;;;22.00;53.36;100583.56;5075706;28;982;-58
2021/05/29 09:06:29;;;;;;;;;;;;;;;21.76;52.87;100579.16;5058535;28;1999;-57
2021/05/29 09:08:55;;;;;;;;;;;;;;;21.60;51.98;100578.72;5080013;28;788;-59
2021/05/29 09:11:53;;;;;;;;;;;;;;;21.62;51.22;100583.94;5080334;28;800;-59
2021/05/29 09:14:24;;;;;;;;;;;;;;;21.38;51.04;100571.16;5026150;28;1241;-59
2021/05/29 09:17:05;;;;;;;;;;;;;;;21.45;51.23;100574.31;5061278;28;1043;-59
2021/05/29 09:19:52;;;;;;;;;;;;;;;21.52;52.14;100574.72;5080275;28;772;-61
2021/05/29 09:22:19;;;;;;;;;;;;;;;21.72;52.67;100574.56;5080115;28;827;-60
2021/05/29 09:24:56;;;;;;;;;;;;;;;21.67;53.25;100581.84;5079829;28;1913;-57
2021/05/29 09:27:22;;;;;;;;;;;;;;;21.88;52.95;100573.88;5080199;28;823;-59
2021/05/29 09:29:47;;;;;;;;;;;;;;;22.01;53.03;100579.66;5079834;28;807;-59
2021/05/29 09:32:13;;;;;;;;;;;;;;;21.88;53.41;100584.94;5079208;28;954;-60
2021/05/29 09:34:53;;;;;;;;;;;;;;;21.98;53.43;100569.19;5079856;28;787;-59
2021/05/29 09:37:20;;;;;;;;;;;;;;;22.03;53.28;100569.09;5079657;28;875;-60
2021/05/29 09:39:46;;;;;;;;;;;;;;;22.00;53.31;100569.72;5079293;28;752;-60
2021/05/29 09:42:12;;;;;;;;;;;;;;;21.96;53.75;100565.94;5080181;28;780;-59
2021/05/29 09:44:37;;;;;;;;;;;;;;;22.12;53.28;100571.91;5061616;28;1979;-60
2021/05/29 09:47:04;;;;;;;;;;;;;;;22.17;53.34;100566.22;5079041;28;1005;-54
2021/05/29 09:49:41;;;;;;;;;;;;;;;22.17;53.14;100564.28;5079501;28;843;-59
2021/05/29 09:52:26;;;;;;;;;;;;;;;22.13;53.74;100568.84;5079620;28;807;-55
2021/05/29 09:54:55;;;;;;;;;;;;;;;22.26;53.07;100574.59;5078943;28;810;-60
2021/05/29 09:57:20;;;;;;;;;;;;;;;22.18;53.18;100577.00;5079329;28;768;-60
2021/05/29 09:59:52;;;;;;;;;;;;;;;22.29;53.13;100571.19;5079217;28;755;-62
2021/05/29 10:02:18;;;;;;;;;;;;;;;22.29;53.15;100568.44;5078788;28;985;-59
2021/05/29 10:04:44;;;;;;;;;;;;;;;22.30;53.09;100572.81;5079229;28;1909;-61
2021/05/29 10:07:11;;;;;;;;;;;;;;;22.40;52.96;100572.59;5079597;28;763;-59
2021/05/29 10:09:36;;;;;;;;;;;;;;;22.29;53.23;100562.91;5078782;28;515;-59
2021/05/29 10:12:02;;;;;;;;;;;;;;;22.39;52.95;100569.00;5078946;28;1127;-59
2021/05/29 10:14:30;;;;;;;;;;;;;;;22.01;53.99;100568.59;5079144;28;787;-60
2021/05/29 10:16:56;;;;;;;;;;;;;;;21.72;55.09;100561.53;5078219;28;1043;-60
2021/05/29 10:19:22;;;;;;;;;;;;;;;21.42;55.37;100563.88;5078765;28;807;-59
2021/05/29 10:21:48;;;;;;;;;;;;;;;21.19;55.97;100571.28;5079309;28;808;-59
2021/05/29 10:24:13;;;;;;;;;;;;;;;21.60;55.76;100570.41;5077549;28;823;-57
2021/05/29 10:26:39;;;;;;;;;;;;;;;22.03;54.87;100569.09;5078828;28;1975;-59
2021/05/29 10:29:04;;;;;;;;;;;;;;;22.39;54.14;100568.19;5078641;28;764;-60
2021/05/29 10:31:32;;;;;;;;;;;;;;;22.30;54.52;100567.28;5060419;28;860;-59
2021/05/29 10:33:57;;;;;;;;;;;;;;;22.17;55.17;100572.56;5078783;28;947;-56
2021/05/29 10:36:41;;;;;;;;;;;;;;;22.03;54.17;100572.69;5079070;28;799;-60
2021/05/29 10:39:08;;;;;;;;;;;;;;;21.44;54.46;100566.31;5078251;28;843;-58
2021/05/29 10:41:51;;;;;;;;;;;;;;;21.66;55.74;100573.88;5078737;28;752;-54
2021/05/29 10:44:27;;;;;;;;;;;;;;;21.86;54.98;100570.59;5078591;28;820;-53
2021/05/29 10:47:07;;;;;;;;;;;;;;;22.14;55.19;100567.69;5077568;28;1983;-60
2021/05/29 10:49:48;;;;;;;;;;;;;;;22.29;54.51;100569.25;5078111;28;744;-57
2021/05/29 10:52:41;;;;;;;;;;;;;;;22.12;54.80;100569.13;5078228;28;855;-62
2021/05/29 10:55:10;;;;;;;;;;;;;;;21.99;55.43;100560.59;5078430;28;816;-62
2021/05/29 10:57:51;;;;;;;;;;;;;;;21.90;54.29;100561.69;5078484;28;815;-58
2021/05/29 11:00:35;;;;;;;;;;;;;;;21.56;53.20;100563.88;5077813;28;771;-58
2021/05/29 11:03:15;;;;;;;;;;;;;;;21.83;55.86;100570.41;5077986;28;947;-60
2021/05/29 11:05:41;;;;;;;;;;;;;;;22.07;55.28;100567.31;5059833;28;1910;-59
2021/05/29 11:08:25;;;;;;;;;;;;;;;22.41;54.21;100571.44;5077709;28;735;-61
2021/05/29 11:10:50;;;;;;;;;;;;;;;22.47;53.76;100561.88;5078158;28;807;-58
2021/05/29 11:13:16;;;;;;;;;;;;;;;22.26;54.50;100569.03;5040258;28;1215;-59
2021/05/29 11:15:54;;;;;;;;;;;;;;;22.19;54.40;100564.78;5057530;28;1183;-59
2021/05/29 11:18:19;;;;;;;;;;;;;;;21.73;52.07;100571.47;5071876;28;958;-59
2021/05/29 11:21:06;;;;;;;;;;;;;;;21.56;53.24;100568.56;5077723;28;787;-60
2021/05/29 11:23:32;;;;;;;;;;;;;;;21.88;55.81;100576.66;5078011;28;810;-54
2021/05/29 11:25:57;;;;;;;;;;;;;;;22.16;54.85;100570.97;5077998;28;1988;-55
2021/05/29 11:28:23;;;;;;;;;;;;;;;22.41;54.08;100568.66;5077907;28;744;-56
2021/05/29 11:30:49;;;;;;;;;;;;;;;22.49;53.75;100570.66;5076967;28;748;-53
2021/05/29 11:33:16;;;;;;;;;;;;;;;22.11;54.67;100568.31;5077383;28;946;-52
2021/05/29 11:35:43;;;;;;;;;;;;;;;22.13;54.51;100566.06;5077117;28;768;-51
2021/05/29 11:38:15;;;;;;;;;;;;;;;21.67;52.93;100567.19;5077160;28;794;-57
2021/05/29 11:40:45;;;;;;;;;;;;;;;21.68;52.57;100558.56;5077515;28;704;-51
2021/05/29 11:43:11;;;;;;;;;;;;;;;21.81;55.23;100567.97;5077388;28;926;-58
2021/05/29 11:45:37;;;;;;;;;;;;;;;21.85;54.80;100566.22;5077007;28;1914;-53
2021/05/29 11:48:04;;;;;;;;;;;;;;;22.18;54.61;100565.09;5076881;28;962;-59
2021/05/29 11:50:30;;;;;;;;;;;;;;;22.42;53.72;100564.78;5077847;28;873;-52
2021/05/29 11:52:56;;;;;;;;;;;;;;;22.25;54.29;100572.97;5077049;28;799;-51
2021/05/29 11:55:21;;;;;;;;;;;;;;;22.05;54.67;100572.38;5059164;28;812;-50
2021/05/29 11:57:56;;;;;;;;;;;;;;;21.92;53.48;100573.25;5082228;28;1083;-51
2021/05/29 12:00:22;;;;;;;;;;;;;;;21.76;51.43;100572.81;5078049;28;883;-56
2021/05/29 12:02:51;;;;;;;;;;;;;;;21.80;54.21;100568.28;5085782;28;939;-59
2021/05/29 12:05:17;;;;;;;;;;;;;;;21.90;55.23;100567.22;5076352;28;1913;-51
2021/05/29 12:07:59;;;;;;;;;;;;;;;22.18;54.56;100568.69;5076389;28;771;-59
2021/05/29 12:10:24;;;;;;;;;;;;;;;22.48;53.46;100566.28;5077223;28;1017;-59
2021/05/29 12:12:53;;;;;;;;;;;;;;;22.13;54.20;100560.53;5076395;28;1084;-49
2021/05/29 12:15:18;;;;;;;;;;;;;;;22.12;54.40;100574.66;5076188;28;1158;-51
2021/05/29 12:17:45;;;;;;;;;;;;;;;21.92;52.70;100570.47;5075837;28;919;-57
2021/05/29 12:20:11;;;;;;;;;;;;;;;21.85;51.40;100566.22;5076687;28;823;-59
2021/05/29 12:22:39;;;;;;;;;;;;;;;21.96;54.74;100557.63;5076292;28;826;-57
2021/05/29 12:25:06;;;;;;;;;;;;;;;22.27;53.95;100557.66;5076195;28;1909;-61
2021/05/29 12:27:32;;;;;;;;;;;;;;;22.54;53.00;100558.66;5058908;28;855;-57
2021/05/29 12:29:59;;;;;;;;;;;;;;;22.04;54.45;100551.34;5075596;28;743;-53
2021/05/29 12:32:27;;;;;;;;;;;;;;;21.94;54.58;100543.31;5075818;28;991;-57
2021/05/29 12:34:54;;;;;;;;;;;;;;;21.79;53.16;100550.84;5058058;28;809;-60
2021/05/29 12:37:25;;;;;;;;;;;;;;;21.61;53.33;100544.34;5075971;28;856;-60
2021/05/29 12:40:11;;;;;;;;;;;;;;;22.00;54.75;100551.16;5076028;28;827;-50
2021/05/29 12:42:38;;;;;;;;;;;;;;;22.29;53.90;100546.28;5075363;28;530;-50
2021/05/29 12:45:19;;;;;;;;;;;;;;;22.25;53.50;100545.28;5076024;28;1997;-59
2021/05/29 12:48:04;;;;;;;;;;;;;;;22.24;52.83;100549.16;5075836;28;995;-57
2021/05/29 12:50:37;;;;;;;;;;;;;;;22.12;52.11;100550.56;5075630;28;776;-58
2021/05/29 12:53:06;;;;;;;;;;;;;;;21.86;51.71;100545.69;5075868;28;831;-60
2021/05/29 12:55:31;;;;;;;;;;;;;;;21.82;51.54;100546.63;5076169;28;728;-58
2021/05/29 12:57:57;;;;;;;;;;;;;;;21.76;51.47;100550.66;5075792;28;784;-60
2021/05/29 13:00:58;;;;;;;;;;;;;;;21.76;51.00;100551.47;5076169;28;772;-62
2021/05/29 13:11:27;;;;;;;;;;;;;;;21.65;51.33;100531.53;5039162;28;800;-58
2021/05/29 13:13:58;;;;;;;;;;;;;;;21.72;52.68;100539.41;5074679;28;1176;-59